Time;durP1;ratioP1;P1;durP2;ratioP2;P2;SDS_P1;SDS_P2;PMS_P1;PMS_P2;Temp;Humidity;BMP_temperature;BMP_pressure;BME280_temperature;BME280_humidity;BME280_pressure;Samples;Min_cycle;Max_cycle;Signal;HPM_P1;HPM_P2
2022/11/22 00:00:53;;;;;;;6.72;4.25;;;;;;;0.74;98.26;99031.09;1876289;75;21071;-71
2022/11/22 00:03:23;;;;;;;6.12;4.50;;;;;;;0.74;98.37;99033.28;1899521;75;21118;-72
2022/11/22 00:05:53;;;;;;;5.47;3.77;;;;;;;0.72;98.32;99038.00;1833320;77;21145;-72
2022/11/22 00:08:25;;;;;;;5.40;3.72;;;;;;;0.70;98.32;99041.88;1854144;76;21534;-72
2022/11/22 00:10:58;;;;;;;7.37;4.28;;;;;;;0.67;98.36;99043.55;1839359;77;21174;-73
2022/11/22 00:13:28;;;;;;;6.53;4.55;;;;;;;0.68;98.41;99046.08;1866098;77;21506;-72
2022/11/22 00:16:00;;;;;;;8.05;4.83;;;;;;;0.68;98.42;99041.20;1853183;76;21094;-73
2022/11/22 00:18:31;;;;;;;8.08;4.03;;;;;;;0.69;98.36;99040.19;1855155;76;21549;-72
2022/11/22 00:21:06;;;;;;;6.90;4.10;;;;;;;0.67;98.19;99052.48;1832842;77;21136;-73
2022/11/22 00:23:36;;;;;;;8.00;4.40;;;;;;;0.66;98.03;99049.95;1872583;76;21118;-71
2022/11/22 00:26:10;;;;;;;8.30;4.58;;;;;;;0.58;97.88;99052.95;1831274;78;21125;-72
2022/11/22 00:28:38;;;;;;;8.35;4.67;;;;;;;0.60;97.96;99060.36;1863400;76;21099;-70
2022/11/22 00:31:09;;;;;;;8.33;5.55;;;;;;;0.61;97.92;99058.51;1817652;78;21154;-71
2022/11/22 00:33:40;;;;;;;8.68;5.33;;;;;;;0.59;97.88;99049.75;1834414;77;21162;-71
2022/11/22 00:36:09;;;;;;;8.75;5.10;;;;;;;0.58;97.79;99062.89;1863795;76;21055;-71
2022/11/22 00:38:39;;;;;;;6.92;4.08;;;;;;;0.56;97.75;99062.20;1842181;78;21641;-72
2022/11/22 00:41:09;;;;;;;9.88;5.35;;;;;;;0.56;97.75;99055.47;1885581;75;21548;-72
2022/11/22 00:43:39;;;;;;;11.18;5.80;;;;;;;0.53;97.63;99055.81;1872631;75;21146;-71
2022/11/22 00:46:09;;;;;;;9.35;5.85;;;;;;;0.50;97.70;99054.28;1875295;76;21134;-71
2022/11/22 00:48:39;;;;;;;9.20;5.15;;;;;;;0.46;97.59;99056.98;1884772;75;21087;-72
2022/11/22 00:51:11;;;;;;;8.93;4.97;;;;;;;0.46;97.62;99061.52;1875352;75;21105;-70
2022/11/22 00:53:40;;;;;;;8.40;5.45;;;;;;;0.44;97.61;99068.42;1870096;76;21110;-71
2022/11/22 00:56:10;;;;;;;10.13;6.00;;;;;;;0.45;97.68;99070.11;1874260;75;21090;-70
2022/11/22 00:58:41;;;;;;;8.33;5.47;;;;;;;0.46;97.60;99075.00;1874418;76;21071;-72
2022/11/22 01:01:10;;;;;;;10.65;6.10;;;;;;;0.43;97.40;99069.44;1834439;75;21170;-72
2022/11/22 01:03:41;;;;;;;9.00;5.58;;;;;;;0.40;97.40;99069.77;1890777;75;21129;-70
2022/11/22 01:06:12;;;;;;;11.73;6.97;;;;;;;0.40;97.27;99063.53;1869973;76;21169;-72
2022/11/22 01:08:42;;;;;;;11.97;6.92;;;;;;;0.36;97.22;99072.95;1870026;75;21102;-70
2022/11/22 01:11:12;;;;;;;9.38;5.50;;;;;;;0.37;97.25;99071.95;1870075;76;21162;-71
2022/11/22 01:13:42;;;;;;;12.65;6.70;;;;;;;0.38;97.25;99056.13;1845317;76;21079;-72
2022/11/22 01:16:13;;;;;;;11.05;6.00;;;;;;;0.39;97.25;99068.59;1843603;76;21130;-72
2022/11/22 01:18:44;;;;;;;11.65;6.58;;;;;;;0.42;97.26;99068.25;1842615;76;21090;-71
2022/11/22 01:21:14;;;;;;;11.12;5.95;;;;;;;0.41;97.20;99076.84;1842221;78;21138;-72
2022/11/22 01:23:45;;;;;;;8.15;5.25;;;;;;;0.40;97.05;99077.84;1882431;75;21154;-72
2022/11/22 01:26:15;;;;;;;8.35;4.85;;;;;;;0.37;96.88;99080.03;1817819;77;21122;-72
2022/11/22 01:28:46;;;;;;;8.25;5.12;;;;;;;0.36;96.63;99081.04;1869385;77;21087;-71
2022/11/22 01:31:17;;;;;;;8.35;5.25;;;;;;;0.30;96.27;99075.30;1847749;76;21173;-73
2022/11/22 01:33:47;;;;;;;8.03;5.25;;;;;;;0.29;96.29;99081.70;1846350;76;21616;-74
2022/11/22 01:36:17;;;;;;;8.35;4.83;;;;;;;0.26;96.13;99086.06;1843493;76;21135;-74
2022/11/22 01:38:47;;;;;;;7.80;5.12;;;;;;;0.24;95.91;99100.20;1861071;77;21591;-77
2022/11/22 01:41:18;;;;;;;10.58;5.60;;;;;;;0.23;95.76;99109.80;1821097;77;21115;-76
2022/11/22 01:43:48;;;;;;;8.53;5.12;;;;;;;0.21;95.67;99115.84;1842297;76;21510;-80
2022/11/22 01:46:34;;;;;;;9.93;5.87;;;;;;;0.23;95.49;99105.75;1870096;76;21095;-77
2022/11/22 01:49:13;;;;;;;13.20;7.28;;;;;;;0.18;95.14;99110.28;1875196;76;21435;-79
2022/11/22 01:51:46;;;;;;;9.58;6.42;;;;;;;0.14;94.72;99115.66;1874475;75;21075;-77
2022/11/22 01:54:18;;;;;;;11.63;6.50;;;;;;;0.10;94.47;99114.80;1844113;76;21098;-78
2022/11/22 01:56:52;;;;;;;10.13;7.20;;;;;;;0.06;94.40;99131.78;1840276;78;21130;-77
2022/11/22 01:59:25;;;;;;;11.33;7.22;;;;;;;0.05;94.38;99124.71;1848574;76;21092;-78
2022/11/22 02:01:55;;;;;;;8.88;6.20;;;;;;;0.06;94.34;99114.78;1866305;76;21063;-77
2022/11/22 02:04:27;;;;;;;12.10;5.72;;;;;;;0.07;94.33;99115.13;1870324;75;21142;-79
2022/11/22 02:07:15;;;;;;;10.15;6.40;;;;;;;0.05;94.14;99123.36;1869767;76;21158;-78
2022/11/22 02:09:45;;;;;;;12.85;7.05;;;;;;;0.04;93.76;99125.72;1865992;76;21182;-79
2022/11/22 02:12:16;;;;;;;11.35;7.05;;;;;;;-0.02;93.55;99123.14;1881197;75;21765;-78
2022/11/22 02:14:47;;;;;;;11.35;7.22;;;;;;;-0.07;93.57;99118.73;1824522;77;21113;-78
2022/11/22 02:17:16;;;;;;;10.78;7.28;;;;;;;-0.11;93.54;99128.14;1821293;76;21095;-78
2022/11/22 02:19:48;;;;;;;12.43;6.75;;;;;;;-0.14;93.35;99134.34;1878165;75;21056;-75
2022/11/22 02:22:55;;;;;;;12.78;8.00;;;;;;;-0.20;93.41;99139.03;1874571;75;21099;-76
2022/11/22 02:25:56;;;;;;;12.30;7.78;;;;;;;-0.22;93.48;99136.50;1875678;75;21592;-78
2022/11/22 02:28:28;;;;;;;15.13;8.98;;;;;;;-0.24;93.42;99136.31;1895232;75;21116;-77
2022/11/22 02:30:59;;;;;;;16.02;9.83;;;;;;;-0.30;93.17;99141.84;1869565;75;21111;-77
2022/11/22 02:33:30;;;;;;;13.68;8.20;;;;;;;-0.33;93.25;99155.11;1870703;75;21154;-77
2022/11/22 02:35:59;;;;;;;15.38;9.23;;;;;;;-0.33;93.36;99156.45;1874576;75;21087;-77
2022/11/22 02:38:32;;;;;;;13.75;8.28;;;;;;;-0.30;93.46;99149.06;1884466;75;21087;-76
2022/11/22 02:41:08;;;;;;;18.02;9.38;;;;;;;-0.30;93.39;99148.56;1861422;75;21126;-76
2022/11/22 02:43:41;;;;;;;14.53;8.75;;;;;;;-0.30;93.35;99153.10;1872988;75;21087;-74
2022/11/22 02:46:14;;;;;;;17.30;9.68;;;;;;;-0.29;93.18;99152.09;1856524;76;21123;-75
2022/11/22 02:48:44;;;;;;;15.03;9.15;;;;;;;-0.32;93.13;99154.10;1842245;77;21542;-74
2022/11/22 02:51:15;;;;;;;15.60;9.38;;;;;;;-0.33;93.10;99152.92;1842219;78;21099;-74
2022/11/22 02:53:47;;;;;;;15.08;9.65;;;;;;;-0.35;93.07;99161.65;1865646;77;21547;-74
2022/11/22 02:56:17;;;;;;;14.50;8.58;;;;;;;-0.34;93.18;99172.76;1840152;78;21130;-72
2022/11/22 02:58:47;;;;;;;14.70;9.13;;;;;;;-0.33;93.15;99167.72;1842368;76;21095;-74
2022/11/22 03:01:16;;;;;;;15.38;8.93;;;;;;;-0.36;93.02;99174.27;1840807;78;21549;-72
2022/11/22 03:03:46;;;;;;;17.27;9.05;;;;;;;-0.38;93.12;99178.95;1856445;76;21130;-73
2022/11/22 03:06:15;;;;;;;17.42;9.33;;;;;;;-0.39;92.88;99174.58;1836716;78;21111;-73
2022/11/22 03:08:47;;;;;;;15.90;9.70;;;;;;;-0.41;92.87;99173.89;1856501;76;21165;-73
2022/11/22 03:11:18;;;;;;;17.80;9.98;;;;;;;-0.40;92.93;99172.05;1837707;77;21111;-73
2022/11/22 03:13:49;;;;;;;19.02;10.80;;;;;;;-0.39;92.88;99190.72;1845362;76;21166;-74
2022/11/22 03:16:18;;;;;;;15.75;9.00;;;;;;;-0.39;92.84;99198.80;1842406;77;21604;-73
2022/11/22 03:18:49;;;;;;;17.20;10.38;;;;;;;-0.38;92.74;99200.48;1844893;77;21130;-73
2022/11/22 03:21:21;;;;;;;18.50;10.00;;;;;;;-0.36;92.65;99199.83;1851369;76;21115;-75
2022/11/22 03:23:50;;;;;;;19.40;11.08;;;;;;;-0.38;92.53;99195.10;1866412;75;21102;-74
2022/11/22 03:26:20;;;;;;;18.92;10.88;;;;;;;-0.36;92.46;99202.52;1848455;77;21097;-74
2022/11/22 03:28:50;;;;;;;21.30;11.45;;;;;;;-0.33;92.55;99210.77;1868924;77;21095;-74
2022/11/22 03:31:20;;;;;;;21.23;12.33;;;;;;;-0.34;92.40;99214.47;1841996;78;21093;-75
2022/11/22 03:33:51;;;;;;;19.70;11.40;;;;;;;-0.35;92.44;99205.55;1842216;78;21574;-78
2022/11/22 03:36:22;;;;;;;19.23;10.53;;;;;;;-0.33;92.44;99208.92;1872494;75;21099;-78
2022/11/22 03:38:51;;;;;;;18.70;10.75;;;;;;;-0.33;92.09;99221.54;1870926;76;21095;-79
2022/11/22 03:41:20;;;;;;;18.95;10.55;;;;;;;-0.35;92.12;99218.16;1872463;76;21087;-79
2022/11/22 03:43:50;;;;;;;15.72;9.40;;;;;;;-0.34;91.70;99211.77;1890093;75;21518;-77
2022/11/22 03:46:19;;;;;;;16.77;9.70;;;;;;;-0.39;91.47;99212.25;1846348;76;21125;-80
2022/11/22 03:48:49;;;;;;;18.52;10.20;;;;;;;-0.41;91.42;99213.41;1860838;76;21090;-81
2022/11/22 03:51:19;;;;;;;17.27;9.95;;;;;;;-0.43;91.50;99221.63;1847452;77;21106;-81
2022/11/22 03:53:48;;;;;;;16.82;10.08;;;;;;;-0.43;91.38;99222.13;1836131;76;21145;-76
2022/11/22 03:56:18;;;;;;;14.05;9.00;;;;;;;-0.43;91.38;99228.86;1855986;76;21109;-80
2022/11/22 03:58:48;;;;;;;15.88;8.60;;;;;;;-0.46;91.33;99230.02;1842193;76;21103;-82
2022/11/22 04:01:19;;;;;;;14.87;8.73;;;;;;;-0.49;91.19;99240.25;1897814;75;21079;-82
2022/11/22 04:03:49;;;;;;;16.02;9.60;;;;;;;-0.50;90.94;99250.16;1870379;76;21130;-80
2022/11/22 04:06:19;;;;;;;16.20;9.60;;;;;;;-0.57;90.46;99251.78;1869354;75;21118;-80
2022/11/22 04:08:50;;;;;;;15.50;8.80;;;;;;;-0.61;90.44;99256.28;1876724;75;21099;-81
2022/11/22 04:11:21;;;;;;;15.90;9.30;;;;;;;-0.63;90.42;99244.34;1884807;75;21538;-80
2022/11/22 04:16:39;;;;;;;19.25;10.55;;;;;;;-0.66;90.30;99247.30;1859684;77;21098;-79
2022/11/22 04:19:10;;;;;;;14.07;9.07;;;;;;;-0.63;90.50;99248.38;1853303;77;21126;-77
2022/11/22 04:21:40;;;;;;;15.80;9.40;;;;;;;-0.62;90.62;99250.06;1851849;76;21605;-78
2022/11/22 04:26:59;;;;;;;14.00;8.78;;;;;;;-0.63;90.47;99238.11;1848755;76;21096;-79
2022/11/22 04:29:29;;;;;;;14.73;8.05;;;;;;;-0.66;90.46;99237.39;1840601;77;21564;-78
2022/11/22 04:34:49;;;;;;;17.42;9.85;;;;;;;-0.64;90.70;99246.68;1834339;78;21518;-78
2022/11/22 04:37:18;;;;;;;16.00;9.10;;;;;;;-0.60;90.87;99256.63;1863944;77;21106;-78
2022/11/22 04:39:48;;;;;;;13.10;8.25;;;;;;;-0.62;90.23;99271.58;1847970;77;21111;-77
2022/11/22 04:45:08;;;;;;;17.57;10.23;;;;;;;-0.69;90.53;99287.95;1850796;77;21096;-75
2022/11/22 04:53:18;;;;;;;16.48;10.35;;;;;;;-0.67;90.77;99291.34;1839229;78;21159;-76
2022/11/22 04:55:50;;;;;;;16.35;10.18;;;;;;;-0.66;91.02;99287.15;1823237;78;21854;-75
2022/11/22 04:58:19;;;;;;;16.77;10.45;;;;;;;-0.62;91.15;99285.53;1859959;76;21126;-75
2022/11/22 05:00:50;;;;;;;16.90;10.28;;;;;;;-0.63;90.96;99298.63;1841148;78;21515;-75
2022/11/22 05:03:21;;;;;;;17.15;9.70;;;;;;;-0.65;90.82;99289.38;1866614;75;21083;-77
2022/11/22 07:51:19;;;;;;;16.85;9.63;;;;;;;-0.29;91.75;99456.20;1851111;76;28416;-68
2022/11/22 07:53:50;;;;;;;16.87;10.32;;;;;;;-0.33;91.37;99453.81;1750539;80;21138;-68
2022/11/22 07:56:20;;;;;;;18.92;10.60;;;;;;;-0.33;91.35;99450.28;1748759;82;21164;-68
2022/11/22 07:58:49;;;;;;;16.05;9.65;;;;;;;-0.26;91.43;99449.17;1738411;81;21604;-69
2022/11/22 08:01:20;;;;;;;17.27;9.73;;;;;;;-0.20;91.34;99457.48;1774396;80;21633;-68
2022/11/22 08:03:50;;;;;;;16.73;9.55;;;;;;;-0.18;91.18;99457.33;1757036;81;21150;-67
2022/11/22 08:06:20;;;;;;;17.27;9.80;;;;;;;-0.15;90.94;99455.68;1755136;82;21114;-67
2022/11/22 08:08:51;;;;;;;15.55;8.73;;;;;;;-0.13;90.85;99453.19;1755507;82;21165;-68
2022/11/22 08:11:23;;;;;;;18.10;10.75;;;;;;;-0.11;90.55;99463.30;1747534;82;21096;-68
2022/11/22 08:13:53;;;;;;;14.68;8.55;;;;;;;-0.15;90.00;99467.80;1742509;82;21111;-66
2022/11/22 08:16:24;;;;;;;15.93;8.45;;;;;;;-0.14;89.76;99466.80;1742126;82;21110;-67
2022/11/22 08:18:53;;;;;;;12.00;7.28;;;;;;;-0.17;89.46;99468.45;1734716;82;21119;-68
2022/11/22 08:21:24;;;;;;;14.55;8.98;;;;;;;-0.18;89.38;99470.79;1711974;83;21103;-68
2022/11/22 08:23:59;;;;;;;13.65;7.42;;;;;;;-0.20;89.27;99472.78;1732048;81;21118;-68
2022/11/22 08:26:29;;;;;;;15.78;8.60;;;;;;;-0.21;89.33;99470.59;1738477;82;21095;-70
2022/11/22 08:29:05;;;;;;;15.60;8.60;;;;;;;-0.19;89.35;99463.21;1691217;84;21210;-67
2022/11/22 08:31:37;;;;;;;12.60;7.00;;;;;;;-0.14;89.34;99462.76;1681668;84;21155;-68
2022/11/22 08:34:07;;;;;;;18.50;9.23;;;;;;;-0.13;89.16;99456.38;1695134;84;21154;-68
2022/11/22 08:36:38;;;;;;;16.10;7.55;;;;;;;-0.14;89.25;99461.41;1751709;81;21217;-66
2022/11/22 08:39:08;;;;;;;13.10;7.58;;;;;;;-0.13;88.88;99465.80;1702881;83;21126;-68
2022/11/22 08:41:38;;;;;;;12.07;7.33;;;;;;;-0.13;88.97;99468.48;1750502;81;21134;-67
2022/11/22 08:44:07;;;;;;;13.80;8.65;;;;;;;-0.12;89.00;99472.38;1771768;80;21121;-67
2022/11/22 08:46:37;;;;;;;12.68;7.90;;;;;;;-0.11;89.01;99467.84;1728006;82;21553;-67
2022/11/22 08:49:07;;;;;;;15.13;8.38;;;;;;;-0.12;88.90;99472.88;1742833;81;21164;-69
2022/11/22 08:51:37;;;;;;;14.30;8.00;;;;;;;-0.11;89.02;99478.61;1763274;80;21115;-69
2022/11/22 08:54:08;;;;;;;12.85;7.67;;;;;;;-0.08;89.09;99476.95;1749339;82;21252;-67
2022/11/22 08:56:37;;;;;;;12.20;7.53;;;;;;;-0.08;88.91;99468.88;1739497;82;21126;-69
2022/11/22 08:59:07;;;;;;;14.23;7.50;;;;;;;-0.08;89.05;99466.19;1734900;81;21497;-67
2022/11/22 09:01:38;;;;;;;16.62;8.35;;;;;;;-0.10;88.86;99474.41;1765350;80;21603;-71
2022/11/22 09:04:09;;;;;;;14.13;7.97;;;;;;;-0.03;89.60;99472.80;1773363;80;21146;-71
2022/11/22 09:06:40;;;;;;;12.93;8.03;;;;;;;0.02;89.40;99480.45;1753098;82;21124;-71
2022/11/22 09:09:12;;;;;;;13.05;7.70;;;;;;;0.02;89.23;99472.38;1752881;82;21166;-72
2022/11/22 09:11:43;;;;;;;12.05;7.17;;;;;;;0.02;89.14;99481.80;1741642;80;21110;-70
2022/11/22 09:14:14;;;;;;;13.30;7.60;;;;;;;-0.01;88.80;99472.65;1775524;80;21122;-70
2022/11/22 09:16:43;;;;;;;13.38;7.90;;;;;;;0.00;89.01;99475.72;1731549;82;21110;-71
2022/11/22 09:19:12;;;;;;;13.43;7.92;;;;;;;0.02;88.87;99480.45;1756344;82;21177;-70
2022/11/22 09:21:42;;;;;;;11.15;7.17;;;;;;;0.05;88.88;99482.84;1761875;80;21181;-71
2022/11/22 09:24:12;;;;;;;12.73;7.53;;;;;;;0.06;88.50;99483.19;1765861;80;21730;-70
2022/11/22 09:26:41;;;;;;;12.28;7.65;;;;;;;0.01;88.26;99490.87;1766827;80;21578;-70
2022/11/22 09:29:11;;;;;;;14.33;7.83;;;;;;;-0.02;88.35;99488.45;1761059;80;22160;-68
2022/11/22 09:31:41;;;;;;;14.45;7.72;;;;;;;-0.01;88.23;99486.95;1766135;80;21204;-69
2022/11/22 09:34:11;;;;;;;15.20;9.35;;;;;;;0.03;88.35;99483.99;1723645;82;21196;-70
2022/11/22 09:36:42;;;;;;;15.48;9.10;;;;;;;0.09;88.55;99501.73;1747082;82;21131;-70
2022/11/22 09:39:12;;;;;;;13.08;7.17;;;;;;;0.13;88.64;99502.27;1777055;80;21230;-69
2022/11/22 09:41:56;;;;;;;13.90;7.80;;;;;;;0.16;88.77;99504.66;1771404;80;21142;-69
2022/11/22 09:44:45;;;;;;;12.20;6.37;;;;;;;0.19;88.88;99501.66;1730726;82;21131;-69
2022/11/22 09:47:46;;;;;;;12.30;6.83;;;;;;;0.22;88.95;99498.16;1739778;82;21222;-69
2022/11/22 09:50:58;;;;;;;13.75;7.53;;;;;;;0.20;88.75;99491.23;1743452;81;21249;-70
2022/11/22 09:54:01;;;;;;;12.85;6.90;;;;;;;0.24;89.23;99499.34;1681723;85;21220;-70
2022/11/22 09:56:32;;;;;;;12.23;6.75;;;;;;;0.21;88.97;99513.13;1711932;83;21189;-72
2022/11/22 09:59:25;;;;;;;14.55;7.03;;;;;;;0.20;88.73;99508.73;1815706;77;22171;-71
2022/11/22 10:02:06;;;;;;;12.05;7.15;;;;;;;0.14;88.72;99507.50;1761158;80;21095;-73
2022/11/22 10:04:46;;;;;;;15.70;8.20;;;;;;;0.14;88.75;99507.50;1764760;80;21097;-72
2022/11/22 10:07:29;;;;;;;13.35;8.28;;;;;;;0.12;88.77;99516.23;1753593;80;21708;-72
2022/11/22 10:10:12;;;;;;;12.05;7.08;;;;;;;0.13;88.94;99521.97;1756596;80;21209;-71
2022/11/22 10:13:05;;;;;;;13.58;7.10;;;;;;;0.14;88.91;99520.13;1756028;80;21138;-70
2022/11/22 10:15:54;;;;;;;13.13;7.50;;;;;;;0.10;88.68;99526.81;1757504;80;21198;-71
2022/11/22 10:18:58;;;;;;;13.72;7.37;;;;;;;0.08;88.77;99525.62;1759737;80;21598;-71
2022/11/22 10:21:28;;;;;;;12.68;7.12;;;;;;;0.11;88.92;99534.74;1786557;80;21150;-71
2022/11/22 10:23:58;;;;;;;14.65;7.40;;;;;;;0.14;89.04;99533.09;1777458;80;21593;-69
2022/11/22 10:26:33;;;;;;;11.90;7.40;;;;;;;0.22;89.74;99528.28;1773869;80;21107;-71
2022/11/22 10:29:38;;;;;;;13.50;7.45;;;;;;;0.25;89.58;99529.33;1780772;80;21609;-70
2022/11/22 10:32:35;;;;;;;18.17;11.00;;;;;;;0.23;89.41;99532.17;1769965;80;21110;-70
2022/11/22 10:35:25;;;;;;;13.83;7.95;;;;;;;0.23;89.49;99535.37;1776278;80;21149;-70
2022/11/22 10:38:32;;;;;;;14.87;7.58;;;;;;;0.21;89.50;99526.09;1764113;80;21095;-70
2022/11/22 10:41:12;;;;;;;12.98;7.47;;;;;;;0.23;89.57;99534.87;1763745;80;21114;-68
2022/11/22 10:44:32;;;;;;;13.18;7.90;;;;;;;0.23;89.40;99543.45;1698405;80;21592;-69
2022/11/22 10:47:39;;;;;;;14.07;6.12;;;;;;;0.29;89.62;99542.83;1774997;80;21651;-70
2022/11/22 10:50:15;;;;;;;13.78;7.22;;;;;;;0.27;89.59;99540.30;1788161;80;21508;-71
2022/11/22 10:53:11;;;;;;;11.33;6.72;;;;;;;0.27;89.53;99538.95;1771363;80;21115;-77
2022/11/22 10:56:13;;;;;;;12.90;6.80;;;;;;;0.28;89.55;99529.86;1757000;80;21607;-72
2022/11/22 10:59:06;;;;;;;11.73;6.60;;;;;;;0.27;89.45;99532.21;1763285;80;21091;-70
2022/11/22 11:01:50;;;;;;;11.93;7.28;;;;;;;0.29;89.58;99530.71;1751230;80;21550;-71
2022/11/22 11:04:19;;;;;;;13.95;8.15;;;;;;;0.29;89.61;99530.21;1741060;81;21100;-70
2022/11/22 11:06:59;;;;;;;13.98;7.53;;;;;;;0.32;89.56;99525.02;1743037;81;21116;-72
2022/11/22 11:09:52;;;;;;;14.13;7.23;;;;;;;0.34;89.56;99532.45;1751290;81;21099;-70
2022/11/22 11:12:35;;;;;;;17.10;8.60;;;;;;;0.36;89.45;99534.48;1746034;81;21566;-71
2022/11/22 11:15:16;;;;;;;13.62;7.97;;;;;;;0.37;89.54;99531.30;1746546;81;21123;-70
2022/11/22 11:17:45;;;;;;;15.30;9.03;;;;;;;0.37;89.44;99525.41;1748817;80;21119;-71
2022/11/22 11:20:26;;;;;;;14.93;8.05;;;;;;;0.38;89.50;99535.68;1771154;81;21111;-68
2022/11/22 11:23:02;;;;;;;13.50;7.90;;;;;;;0.41;89.47;99531.33;1758253;81;21560;-71
2022/11/22 11:25:54;;;;;;;16.23;8.63;;;;;;;0.46;89.47;99533.06;1745492;81;21157;-70
2022/11/22 11:28:26;;;;;;;12.10;6.83;;;;;;;0.46;89.21;99537.10;1748346;81;21202;-70
2022/11/22 11:31:03;;;;;;;10.18;6.17;;;;;;;0.43;89.04;99538.26;1736570;82;21206;-71
2022/11/22 11:33:36;;;;;;;;;;;;;;;0.37;88.98;99538.88;1733819;81;21156;-71
2022/11/22 11:36:18;;;;;;;12.03;6.80;;;;;;;0.34;88.84;99541.03;1753258;81;20294;-70
2022/11/22 11:38:56;;;;;;;9.63;5.87;;;;;;;0.30;88.79;99549.92;1735834;81;21142;-70
2022/11/22 11:41:34;;;;;;;12.07;5.67;;;;;;;0.31;88.58;99554.30;1759218;81;21153;-70
2022/11/22 11:44:09;;;;;;;11.22;6.37;;;;;;;0.26;88.63;99558.80;1717658;83;21619;-70
2022/11/22 11:46:45;;;;;;;12.28;7.17;;;;;;;0.29;88.94;99553.11;1720815;83;21163;-71
2022/11/22 11:49:17;;;;;;;12.25;6.78;;;;;;;0.34;89.26;99550.45;1714776;83;21161;-71
2022/11/22 11:52:19;;;;;;;12.20;6.75;;;;;;;0.44;89.30;99552.58;1751763;81;21082;-71
2022/11/22 11:54:57;;;;;;;11.83;7.03;;;;;;;0.44;89.06;99549.88;1746123;81;21212;-69
2022/11/22 11:57:35;;;;;;;10.93;6.30;;;;;;;0.44;88.93;99541.80;1743423;81;21559;-71
2022/11/22 12:00:27;;;;;;;14.68;6.60;;;;;;;0.43;88.84;99549.03;1745280;81;21496;-71
2022/11/22 12:03:00;;;;;;;11.00;6.45;;;;;;;0.40;88.66;99557.92;1752143;81;21082;-71
2022/11/22 12:05:33;;;;;;;15.30;7.60;;;;;;;0.41;88.67;99561.81;1758036;81;21713;-70
2022/11/22 12:08:29;;;;;;;11.15;6.95;;;;;;;0.40;88.55;99557.42;1715120;83;21166;-72
2022/11/22 12:11:07;;;;;;;11.75;7.40;;;;;;;0.39;88.51;99561.63;1700378;84;21249;-70
2022/11/22 12:13:46;;;;;;;13.22;7.53;;;;;;;0.40;88.72;99554.73;1664378;85;21206;-70
2022/11/22 12:16:27;;;;;;;10.58;6.08;;;;;;;0.43;88.78;99558.97;1656465;85;21158;-70
2022/11/22 12:19:53;;;;;;;11.57;6.85;;;;;;;0.45;88.86;99563.70;1660739;85;21569;-71
2022/11/22 12:22:32;;;;;;;11.45;7.12;;;;;;;0.45;88.92;99567.74;1648624;86;21143;-70
2022/11/22 12:25:21;;;;;;;13.83;6.85;;;;;;;0.46;89.02;99579.72;1667652;85;21147;-71
2022/11/22 12:27:52;;;;;;;13.72;7.65;;;;;;;0.45;88.76;99583.91;1664385;85;21835;-73
2022/11/22 12:30:22;;;;;;;12.07;7.22;;;;;;;0.46;88.79;99592.34;1700548;83;21142;-71
2022/11/22 12:33:03;;;;;;;13.90;7.83;;;;;;;0.48;88.93;99591.69;1746649;81;21091;-72
2022/11/22 12:35:43;;;;;;;14.33;8.15;;;;;;;0.50;89.10;99591.03;1702180;84;21560;-73
2022/11/22 12:38:27;;;;;;;17.65;9.20;;;;;;;0.52;89.43;99599.31;1702919;84;21154;-72
2022/11/22 12:41:01;;;;;;;13.08;7.08;;;;;;;0.52;89.58;99599.31;1695356;84;21114;-71
2022/11/22 12:43:44;;;;;;;13.40;7.72;;;;;;;0.51;89.52;99600.31;1698723;83;21170;-71
2022/11/22 12:46:32;;;;;;;12.98;7.12;;;;;;;0.51;89.35;99607.55;1704322;83;21129;-74
2022/11/22 12:49:36;;;;;;;10.70;6.58;;;;;;;0.49;89.30;99594.73;1713324;84;21130;-73
2022/11/22 12:52:17;;;;;;;10.30;6.70;;;;;;;0.45;88.94;99592.84;1689957;84;21114;-73
2022/11/22 12:55:03;;;;;;;11.38;6.92;;;;;;;0.37;88.52;99594.61;1680151;84;21144;-71
2022/11/22 12:57:47;;;;;;;;;;;;;;;0.33;88.73;99602.64;1708094;84;21125;-73
2022/11/22 13:00:18;;;;;;;9.63;5.78;;;;;;;0.34;88.88;99602.99;1696765;84;20180;-72
2022/11/22 13:02:55;;;;;;;10.95;6.53;;;;;;;0.34;89.10;99596.26;1674036;84;21142;-71
2022/11/22 13:05:36;;;;;;;11.50;6.97;;;;;;;0.36;88.98;99605.03;1696794;84;21139;-71
2022/11/22 16:44:22;;;;;;;19.50;9.83;;;;;;;0.19;92.12;99731.45;1782527;79;28514;-69
2022/11/22 16:46:53;;;;;;;20.55;11.25;;;;;;;0.18;91.99;99729.77;1715443;82;21612;-67
2022/11/22 16:49:23;;;;;;;21.05;9.70;;;;;;;0.21;92.15;99732.16;1725902;82;21558;-67
2022/11/22 16:52:00;;;;;;;20.08;9.28;;;;;;;0.25;92.12;99737.59;1728157;82;21544;-67
2022/11/22 16:54:31;;;;;;;16.62;9.50;;;;;;;0.26;91.91;99737.95;1720286;82;21217;-66
2022/11/22 16:57:00;;;;;;;19.62;10.43;;;;;;;0.26;91.77;99739.80;1727144;82;21160;-66
2022/11/22 16:59:31;;;;;;;18.55;9.78;;;;;;;0.26;91.71;99738.45;1728955;82;21128;-67
2022/11/22 17:02:03;;;;;;;19.30;9.70;;;;;;;0.24;91.65;99735.91;1720203;83;21154;-68
2022/11/22 17:04:33;;;;;;;19.92;10.00;;;;;;;0.24;91.54;99739.95;1725073;82;21093;-66
2022/11/22 17:07:10;;;;;;;19.50;9.88;;;;;;;0.25;91.48;99736.75;1730411;82;21601;-67
2022/11/22 17:09:39;;;;;;;18.35;9.50;;;;;;;0.24;91.43;99741.29;1733367;82;21614;-66
2022/11/22 17:12:24;;;;;;;18.77;9.80;;;;;;;0.25;91.44;99741.64;1744686;82;21102;-67
2022/11/22 17:14:55;;;;;;;21.37;11.25;;;;;;;0.23;91.27;99735.55;1730891;81;21188;-68
2022/11/22 17:17:30;;;;;;;20.95;9.58;;;;;;;0.21;91.19;99739.39;1732488;82;21203;-65
2022/11/22 17:20:01;;;;;;;18.85;9.50;;;;;;;0.18;91.18;99740.53;1720848;82;21171;-65
2022/11/22 17:22:34;;;;;;;31.70;19.87;;;;;;;0.18;91.20;99746.42;1725827;82;21456;-68
2022/11/22 17:25:12;;;;;;;21.17;10.65;;;;;;;0.17;91.12;99740.69;1694566;83;21120;-67
2022/11/22 17:27:44;;;;;;;18.98;10.30;;;;;;;0.18;91.17;99736.99;1707646;83;21157;-66
2022/11/22 17:30:17;;;;;;;20.32;10.80;;;;;;;0.19;91.19;99727.91;1694140;83;21150;-64
2022/11/22 17:32:47;;;;;;;20.25;10.35;;;;;;;0.16;90.80;99722.33;1691919;83;21211;-65
2022/11/22 17:35:19;;;;;;;23.52;10.65;;;;;;;0.15;90.80;99721.13;1711316;83;21130;-67
2022/11/22 17:37:54;;;;;;;21.95;10.98;;;;;;;0.18;90.92;99713.59;1705194;83;21140;-66
2022/11/22 17:40:24;;;;;;;19.95;11.10;;;;;;;0.23;90.98;99710.45;1702071;83;21139;-66
2022/11/22 17:42:56;;;;;;;23.63;12.30;;;;;;;0.24;90.97;99705.42;1719354;81;21149;-66
2022/11/22 17:45:27;;;;;;;22.25;11.48;;;;;;;0.23;91.03;99696.49;1763001;81;21192;-66
2022/11/22 17:47:57;;;;;;;23.25;10.80;;;;;;;0.23;90.99;99693.80;1760615;81;21553;-67
2022/11/22 17:50:27;;;;;;;23.40;10.68;;;;;;;0.20;90.78;99689.20;1732908;81;21119;-67
2022/11/22 17:52:56;;;;;;;23.95;11.28;;;;;;;0.18;90.79;99694.74;1731195;81;21214;-68
2022/11/22 17:55:26;;;;;;;19.40;10.90;;;;;;;0.20;90.87;99686.02;1733460;81;21151;-66
2022/11/22 17:57:59;;;;;;;23.12;11.05;;;;;;;0.20;90.62;99680.63;1726846;81;21122;-67
2022/11/22 18:00:28;;;;;;;23.05;11.22;;;;;;;0.21;90.58;99683.67;1730959;81;21135;-66
2022/11/22 18:02:59;;;;;;;20.57;10.32;;;;;;;0.22;90.51;99680.48;1733509;81;21596;-66
2022/11/22 18:05:35;;;;;;;23.45;10.88;;;;;;;0.22;90.55;99684.02;1739517;82;21205;-67
2022/11/22 18:08:05;;;;;;;21.45;10.35;;;;;;;0.25;90.56;99689.61;1731004;81;21150;-66
2022/11/22 18:10:37;;;;;;;20.68;10.85;;;;;;;0.27;90.47;99692.50;1709635;81;21197;-68
2022/11/22 18:13:08;;;;;;;20.17;10.60;;;;;;;0.26;90.40;99696.20;1713309;83;21311;-67
2022/11/22 18:15:40;;;;;;;21.60;11.15;;;;;;;0.23;90.23;99696.49;1758315;81;21114;-67
2022/11/22 18:18:12;;;;;;;24.12;11.95;;;;;;;0.22;89.97;99697.98;1757885;81;21189;-67
2022/11/22 18:20:48;;;;;;;23.42;11.57;;;;;;;0.23;90.02;99695.64;1726730;81;21151;-67
2022/11/22 18:23:18;;;;;;;26.05;12.50;;;;;;;0.26;90.06;99692.16;1728620;81;21111;-66
2022/11/22 18:25:47;;;;;;;22.40;11.80;;;;;;;0.27;89.97;99690.30;1723822;81;21669;-68
2022/11/22 18:28:17;;;;;;;22.20;11.33;;;;;;;0.27;90.02;99696.55;1737952;81;21118;-65
2022/11/22 18:30:49;;;;;;;22.02;11.25;;;;;;;0.29;90.02;99701.28;1730786;81;21118;-68
2022/11/22 18:33:19;;;;;;;25.88;13.13;;;;;;;0.30;89.95;99711.06;1757434;81;21118;-67
2022/11/22 18:36:07;;;;;;;27.70;12.60;;;;;;;0.27;89.89;99697.89;1745324;81;21112;-68
2022/11/22 18:38:38;;;;;;;23.70;11.10;;;;;;;0.31;89.93;99707.38;1712239;81;21235;-68
2022/11/22 18:41:09;;;;;;;22.85;11.60;;;;;;;0.32;89.91;99698.78;1733696;81;21111;-67
2022/11/22 18:43:38;;;;;;;26.20;12.93;;;;;;;0.31;89.94;99700.63;1743886;81;21130;-67
2022/11/22 18:46:09;;;;;;;27.55;12.20;;;;;;;0.33;89.88;99699.14;1718263;82;21162;-67